Time;durP1;ratioP1;P1;durP2;ratioP2;P2;SDS_P1;SDS_P2;PMS_P1;PMS_P2;Temp;Humidity;BMP_temperature;BMP_pressure;BME280_temperature;BME280_humidity;BME280_pressure;Samples;Min_cycle;Max_cycle;Signal;HPM_P1;HPM_P2
2022/06/11 00:01:55;;;;;;;4.93;4.47;;;21.20;98.80;;;;;;5114145;28;20417;-71
2022/06/11 00:04:38;;;;;;;4.57;4.20;;;21.20;99.00;;;;;;5113521;28;20397;-71
2022/06/11 00:07:08;;;;;;;4.37;4.07;;;21.20;98.90;;;;;;5113377;28;20538;-71
2022/06/11 00:09:35;;;;;;;4.97;4.50;;;21.20;98.80;;;;;;5114056;28;20412;-71
2022/06/11 00:12:00;;;;;;;4.60;4.30;;;21.20;98.70;;;;;;5113130;28;20978;-71
2022/06/11 00:14:29;;;;;;;5.40;5.00;;;21.30;99.00;;;;;;5113828;28;20418;-71
2022/06/11 00:16:57;;;;;;;5.43;5.13;;;21.30;98.90;;;;;;5113855;28;20171;-71
2022/06/11 00:19:23;;;;;;;5.60;4.00;;;21.30;99.00;;;;;;5113100;28;20456;-71
2022/06/11 00:21:52;;;;;;;3.93;3.70;;;21.20;99.00;;;;;;5113789;28;20512;-71
2022/06/11 00:24:19;;;;;;;4.40;4.10;;;21.20;99.50;;;;;;5111403;28;20433;-71
2022/06/11 00:26:46;;;;;;;4.77;4.47;;;21.30;99.90;;;;;;5113767;28;20433;-71
2022/06/11 00:29:13;;;;;;;4.80;4.30;;;21.30;99.90;;;;;;5077160;28;20410;-71
2022/06/11 00:31:39;;;;;;;4.33;4.13;;;21.30;99.90;;;;;;5113695;28;20953;-71
2022/06/11 00:34:05;;;;;;;5.67;5.17;;;21.30;99.90;;;;;;5113001;28;20496;-71
2022/06/11 00:36:31;;;;;;;6.30;5.70;;;21.20;99.90;;;;;;5113556;28;20500;-71
2022/06/11 00:38:58;;;;;;;4.70;4.40;;;21.30;99.90;;;;;;5113439;28;20171;-71
2022/06/11 00:41:26;;;;;;;7.60;4.20;;;21.20;99.70;;;;;;5112922;28;20409;-71
2022/06/11 00:43:53;;;;;;;5.10;4.80;;;21.20;99.40;;;;;;5113420;28;20456;-71
2022/06/11 00:46:49;;;;;;;5.20;4.80;;;21.20;99.60;;;;;;5112784;28;20462;-70
2022/06/11 00:49:24;;;;;;;5.50;5.07;;;21.20;99.80;;;;;;5112944;28;20417;-71
2022/06/11 00:52:03;;;;;;;4.60;4.30;;;21.20;99.80;;;;;;5113302;28;20420;-71
2022/06/11 00:54:32;;;;;;;5.30;4.80;;;21.20;99.60;;;;;;5113317;28;20748;-70
2022/06/11 00:57:00;;;;;;;5.00;4.80;;;21.20;99.70;;;;;;5113237;28;20481;-71
2022/06/11 00:59:33;;;;;;;5.00;4.57;;;21.20;99.80;;;;;;5113236;28;20393;-71
2022/06/11 01:01:59;;;;;;;5.03;4.57;;;21.20;99.90;;;;;;5113465;28;20409;-71
2022/06/11 01:04:42;;;;;;;4.93;4.53;;;21.20;99.90;;;;;;5111405;28;20409;-71
2022/06/11 01:07:31;;;;;;;5.47;5.17;;;21.20;99.90;;;;;;5112748;28;20171;-71
2022/06/11 01:10:19;;;;;;;5.80;5.20;;;21.20;99.90;;;;;;5113347;28;20393;-71
2022/06/11 01:13:30;;;;;;;4.83;4.50;;;21.20;99.90;;;;;;5113339;28;20463;-71
2022/06/11 01:16:20;;;;;;;4.93;4.63;;;21.10;99.90;;;;;;5113187;28;20398;-71
2022/06/11 01:18:52;;;;;;;5.30;5.03;;;21.20;99.90;;;;;;5108355;28;20461;-71
2022/06/11 01:21:39;;;;;;;5.37;5.03;;;21.10;99.90;;;;;;5115588;28;20406;-71
2022/06/11 01:24:38;;;;;;;6.40;5.80;;;21.10;99.90;;;;;;5098554;28;20444;-71
2022/06/11 01:27:35;;;;;;;5.30;4.83;;;21.10;99.90;;;;;;5116592;28;20478;-72
2022/06/11 01:30:05;;;;;;;5.90;5.50;;;21.00;99.90;;;;;;5117158;28;20404;-71
2022/06/11 01:33:01;;;;;;;5.20;4.80;;;21.00;99.90;;;;;;5117555;28;20416;-71
2022/06/11 01:35:46;;;;;;;5.57;5.17;;;21.00;99.90;;;;;;5116563;28;20492;-71
2022/06/11 01:38:48;;;;;;;4.93;4.53;;;21.00;99.90;;;;;;5116415;28;20401;-71
2022/06/11 01:41:29;;;;;;;5.10;4.70;;;21.00;99.90;;;;;;5073484;28;20415;-71
2022/06/11 01:44:01;;;;;;;5.37;4.97;;;21.00;99.90;;;;;;5112468;28;20456;-71
2022/06/11 01:46:32;;;;;;;4.70;4.30;;;21.00;99.90;;;;;;5114826;28;20929;-70
2022/06/11 01:49:27;;;;;;;4.73;4.40;;;21.00;99.90;;;;;;5116972;28;20887;-70
2022/06/11 01:52:29;;;;;;;5.13;4.73;;;21.00;99.90;;;;;;5116630;28;20876;-70
2022/06/11 01:55:14;;;;;;;4.73;4.33;;;21.00;99.90;;;;;;5116745;28;20439;-70
2022/06/11 01:58:05;;;;;;;5.00;4.67;;;21.00;99.90;;;;;;5116743;28;20392;-71
2022/06/11 02:00:43;;;;;;;5.73;4.80;;;21.00;99.90;;;;;;5116265;28;20885;-70
2022/06/11 02:03:32;;;;;;;5.67;5.23;;;21.00;99.90;;;;;;5115603;28;20896;-71
2022/06/11 02:06:22;;;;;;;5.07;4.77;;;20.90;99.90;;;;;;5116575;28;20450;-71
2022/06/11 02:08:55;;;;;;;4.67;4.37;;;21.00;99.90;;;;;;5116191;28;20864;-70
2022/06/11 02:11:35;;;;;;;5.97;5.47;;;21.00;99.90;;;;;;5115916;28;20424;-70
2022/06/11 02:14:12;;;;;;;5.17;4.77;;;21.00;99.90;;;;;;5116405;28;20406;-70
2022/06/11 02:16:53;;;;;;;5.90;5.50;;;21.00;99.90;;;;;;5116225;28;20444;-71
2022/06/11 02:19:28;;;;;;;5.60;5.20;;;21.00;99.90;;;;;;5115530;28;20510;-71
2022/06/11 02:22:02;;;;;;;6.20;5.70;;;21.00;99.90;;;;;;5116232;28;20397;-70
2022/06/11 02:24:36;;;;;;;5.67;5.20;;;20.90;99.90;;;;;;5115470;28;20481;-71
2022/06/11 02:27:05;;;;;;;5.53;5.13;;;20.90;99.90;;;;;;5116068;28;20394;-70
2022/06/11 02:29:33;;;;;;;6.07;5.57;;;20.90;99.90;;;;;;5115786;28;20476;-71
2022/06/11 02:32:09;;;;;;;4.90;4.60;;;20.90;99.90;;;;;;5079806;28;20417;-71
2022/06/11 02:34:44;;;;;;;5.93;5.20;;;20.90;99.90;;;;;;5115926;28;20398;-71
2022/06/11 02:37:17;;;;;;;5.73;5.23;;;20.90;99.90;;;;;;5115552;28;20455;-71
2022/06/11 02:39:43;;;;;;;6.40;6.00;;;20.90;99.90;;;;;;5115881;28;20385;-71
2022/06/11 02:42:13;;;;;;;5.63;5.20;;;20.90;99.90;;;;;;5113849;28;20413;-71
2022/06/11 02:44:39;;;;;;;5.50;5.00;;;20.80;99.90;;;;;;5115916;28;20452;-71
2022/06/11 02:47:05;;;;;;;5.80;5.40;;;20.80;99.90;;;;;;5115845;28;20397;-70
2022/06/11 02:49:33;;;;;;;5.50;5.10;;;20.80;99.90;;;;;;5115120;28;20248;-71
2022/06/11 02:52:03;;;;;;;5.57;5.03;;;20.80;99.90;;;;;;5115040;28;20619;-71
2022/06/11 02:54:29;;;;;;;6.33;5.60;;;20.80;99.90;;;;;;5114976;28;20887;-71
2022/06/11 02:56:58;;;;;;;5.73;4.70;;;20.80;99.90;;;;;;5115360;28;20402;-71
2022/06/11 02:59:26;;;;;;;5.67;5.30;;;20.80;99.90;;;;;;5114471;28;20599;-70
2022/06/11 03:01:53;;;;;;;5.70;5.30;;;20.80;99.90;;;;;;5115077;28;20753;-70
2022/06/11 03:04:20;;;;;;;7.33;4.47;;;20.80;99.90;;;;;;5114600;28;20498;-71
2022/06/11 03:06:46;;;;;;;5.63;5.20;;;20.80;99.90;;;;;;5113783;28;20798;-70
2022/06/11 03:09:15;;;;;;;4.77;4.40;;;20.80;99.90;;;;;;5113464;28;20535;-71
2022/06/11 03:11:41;;;;;;;4.93;4.43;;;20.80;99.90;;;;;;5114835;28;20675;-70
2022/06/11 03:14:07;;;;;;;5.37;4.77;;;20.80;99.90;;;;;;5115093;28;20436;-70
2022/06/11 03:16:32;;;;;;;5.80;4.80;;;20.80;99.90;;;;;;5114417;28;20179;-71
2022/06/11 03:18:59;;;;;;;4.80;4.50;;;20.80;99.90;;;;;;5114765;28;20252;-71
2022/06/11 03:21:24;;;;;;;5.77;5.17;;;20.80;99.90;;;;;;5114356;28;20409;-70
2022/06/11 03:23:50;;;;;;;4.90;4.57;;;20.70;99.90;;;;;;5114791;28;20995;-71
2022/06/11 03:26:16;;;;;;;6.20;4.97;;;20.70;99.90;;;;;;5114325;28;20172;-71
2022/06/11 03:28:42;;;;;;;5.43;4.63;;;20.80;99.90;;;;;;5114812;28;20183;-71
2022/06/11 03:31:08;;;;;;;5.53;5.13;;;20.70;99.90;;;;;;5114860;28;20172;-70
2022/06/11 03:33:36;;;;;;;5.57;5.17;;;20.80;99.90;;;;;;5113814;28;20221;-70
2022/06/11 03:36:04;;;;;;;6.20;5.70;;;20.80;99.90;;;;;;5114734;28;20414;-71
2022/06/11 03:38:30;;;;;;;6.20;5.77;;;20.80;99.90;;;;;;5114128;28;20412;-70
2022/06/11 03:40:55;;;;;;;6.43;5.50;;;20.70;99.90;;;;;;5113862;28;20405;-71
2022/06/11 03:43:21;;;;;;;6.87;6.10;;;20.70;99.90;;;;;;5113863;28;20195;-70
2022/06/11 03:45:47;;;;;;;6.60;6.00;;;20.70;99.90;;;;;;5114624;28;20210;-70
2022/06/11 03:48:12;;;;;;;5.90;5.50;;;20.70;99.90;;;;;;5113787;28;20168;-71
2022/06/11 03:50:40;;;;;;;5.93;5.57;;;20.70;99.90;;;;;;5114382;28;20627;-70
2022/06/11 03:53:08;;;;;;;5.70;5.40;;;20.70;99.90;;;;;;5113974;28;20604;-71
2022/06/11 03:55:35;;;;;;;6.37;5.80;;;20.70;99.90;;;;;;5113648;28;20393;-71
2022/06/11 03:58:01;;;;;;;6.60;6.00;;;20.70;99.90;;;;;;5114585;28;20416;-71
2022/06/11 04:03:15;;;;;;;6.63;5.80;;;20.70;99.90;;;;;;5113588;28;20429;-71
2022/06/11 04:05:43;;;;;;;6.07;5.67;;;20.70;99.90;;;;;;5114202;28;20508;-71
2022/06/11 04:08:09;;;;;;;6.00;5.50;;;20.60;99.90;;;;;;5113762;28;20405;-70
2022/06/11 04:10:37;;;;;;;6.27;5.70;;;20.60;99.90;;;;;;5113584;28;20446;-71
2022/06/11 04:13:04;;;;;;;6.37;5.63;;;20.60;99.90;;;;;;5113959;28;20895;-71
2022/06/11 04:15:29;;;;;;;5.40;5.10;;;20.60;99.90;;;;;;5113353;28;20410;-70
2022/06/11 04:17:55;;;;;;;5.90;5.40;;;20.60;99.90;;;;;;5113750;28;20424;-70
2022/06/11 04:20:21;;;;;;;6.40;5.80;;;20.60;99.90;;;;;;5113500;28;20222;-71
2022/06/11 04:22:47;;;;;;;5.87;5.50;;;20.50;99.90;;;;;;5113785;28;20344;-70
2022/06/11 04:25:16;;;;;;;5.60;5.30;;;20.50;99.90;;;;;;5113623;28;20424;-76
2022/06/11 04:27:43;;;;;;;5.40;5.10;;;20.50;99.90;;;;;;5113705;28;20405;-71
2022/06/11 04:30:12;;;;;;;6.10;5.20;;;20.50;99.90;;;;;;5113687;28;20405;-70
2022/06/11 04:32:37;;;;;;;5.47;5.07;;;20.40;99.90;;;;;;5113081;28;20406;-70
2022/06/11 04:35:04;;;;;;;5.80;5.43;;;20.40;99.90;;;;;;5113364;28;20429;-71
2022/06/11 04:37:30;;;;;;;6.30;5.70;;;20.40;99.90;;;;;;5113044;28;20508;-71
2022/06/11 04:39:57;;;;;;;5.00;4.70;;;20.30;99.90;;;;;;5113648;28;20409;-70
2022/06/11 04:42:24;;;;;;;6.53;5.87;;;20.30;99.90;;;;;;5112814;28;20452;-71
2022/06/11 04:44:50;;;;;;;6.20;5.70;;;20.30;99.90;;;;;;5113488;28;20397;-71
2022/06/11 04:47:21;;;;;;;6.23;5.80;;;20.30;99.90;;;;;;5112865;28;20462;-71
2022/06/11 04:49:51;;;;;;;5.67;5.37;;;20.30;99.90;;;;;;5113080;28;20447;-71
2022/06/11 04:52:17;;;;;;;5.90;5.60;;;20.30;99.90;;;;;;5112609;28;20433;-71
2022/06/11 04:54:43;;;;;;;5.63;5.10;;;20.30;99.90;;;;;;5112868;28;20904;-70
2022/06/11 04:57:09;;;;;;;6.57;6.07;;;20.30;99.90;;;;;;5113286;28;20417;-70
2022/06/11 04:59:35;;;;;;;7.43;6.83;;;20.30;99.90;;;;;;5112723;28;20409;-70
2022/06/11 05:02:02;;;;;;;6.07;5.67;;;20.40;99.90;;;;;;5077119;28;20420;-70
2022/06/11 05:04:28;;;;;;;5.90;5.50;;;20.40;99.90;;;;;;5112574;28;20730;-71
2022/06/11 05:06:56;;;;;;;6.73;6.23;;;20.40;99.90;;;;;;5112870;28;20397;-70
2022/06/11 05:09:24;;;;;;;6.87;6.30;;;20.40;99.90;;;;;;5112550;28;20402;-70
2022/06/11 05:11:52;;;;;;;6.27;5.73;;;20.40;99.90;;;;;;5113211;28;20171;-70
2022/06/11 05:14:20;;;;;;;8.67;7.60;;;20.40;99.90;;;;;;5112205;28;20421;-71
2022/06/11 05:16:46;;;;;;;7.60;7.00;;;20.40;99.90;;;;;;5113064;28;20432;-70
2022/06/11 05:19:16;;;;;;;5.83;5.33;;;20.40;99.90;;;;;;5113011;28;20802;-70
2022/06/11 05:21:42;;;;;;;4.97;4.57;;;20.50;99.90;;;;;;5111963;28;20462;-70
2022/06/11 05:24:09;;;;;;;4.73;4.40;;;20.50;99.90;;;;;;5112887;28;20542;-70
2022/06/11 05:26:46;;;;;;;5.10;4.70;;;20.50;99.90;;;;;;5112479;28;20421;-70
2022/06/11 05:29:19;;;;;;;4.97;4.57;;;20.60;99.90;;;;;;5112973;28;20401;-71
2022/06/11 05:31:45;;;;;;;4.93;4.43;;;20.60;99.90;;;;;;5112896;28;20716;-70
2022/06/11 05:34:10;;;;;;;4.90;4.40;;;20.60;99.90;;;;;;5112918;28;20462;-70
2022/06/11 05:36:36;;;;;;;4.47;4.17;;;20.60;99.90;;;;;;5112580;28;20505;-71
2022/06/11 05:39:03;;;;;;;5.00;4.33;;;20.60;99.90;;;;;;5112590;28;20207;-70
2022/06/11 05:41:28;;;;;;;5.03;4.50;;;20.70;99.90;;;;;;5112265;28;20168;-70
2022/06/11 05:43:54;;;;;;;7.50;5.23;;;20.70;99.90;;;;;;5112740;28;20445;-70
2022/06/11 05:46:24;;;;;;;6.47;5.97;;;20.80;99.90;;;;;;5112253;28;20171;-71
2022/06/11 05:48:58;;;;;;;5.47;4.97;;;20.80;99.90;;;;;;5112783;28;20409;-70
2022/06/11 05:51:30;;;;;;;4.97;4.47;;;20.80;99.90;;;;;;5112395;28;20389;-70
2022/06/11 05:53:57;;;;;;;4.73;4.40;;;20.90;99.90;;;;;;5111837;28;20490;-70
2022/06/11 05:56:24;;;;;;;4.80;4.40;;;20.90;99.90;;;;;;5112235;28;20417;-71
2022/06/11 05:59:01;;;;;;;5.20;4.90;;;20.90;99.90;;;;;;5113027;28;20484;-70
2022/06/11 06:01:32;;;;;;;6.10;5.80;;;21.00;99.90;;;;;;5112210;28;20390;-70
2022/06/11 06:03:57;;;;;;;6.10;5.57;;;21.00;99.90;;;;;;5113181;28;20822;-70
2022/06/11 06:06:24;;;;;;;5.60;5.20;;;21.10;99.90;;;;;;5115663;28;20405;-71
2022/06/11 06:08:49;;;;;;;6.97;5.10;;;21.20;99.90;;;;;;5116457;28;20168;-70
2022/06/11 06:11:15;;;;;;;5.77;5.37;;;21.20;99.90;;;;;;5116416;28;20405;-70
2022/06/11 06:13:47;;;;;;;5.90;5.40;;;21.30;99.90;;;;;;5115694;28;20174;-70
2022/06/11 06:16:22;;;;;;;5.30;5.00;;;21.30;99.90;;;;;;5116342;28;20167;-70
2022/06/11 06:18:49;;;;;;;5.23;4.93;;;21.40;99.90;;;;;;5116111;28;20448;-71
2022/06/11 06:21:17;;;;;;;5.10;4.80;;;21.40;99.90;;;;;;5116229;28;20397;-71
2022/06/11 06:23:42;;;;;;;5.90;5.37;;;21.50;99.90;;;;;;5115432;28;20485;-70
2022/06/11 06:26:08;;;;;;;5.00;4.80;;;21.50;99.90;;;;;;5116044;28;20798;-70
2022/06/11 06:28:35;;;;;;;5.53;5.13;;;21.60;99.90;;;;;;5115140;28;20164;-70
2022/06/11 06:31:02;;;;;;;5.50;5.10;;;21.60;99.90;;;;;;5116099;28;20172;-70
2022/06/11 06:33:30;;;;;;;4.63;4.33;;;21.60;99.90;;;;;;5114118;28;20465;-71
2022/06/11 06:35:57;;;;;;;4.40;4.20;;;21.70;99.90;;;;;;5116063;28;20409;-71
2022/06/11 06:38:23;;;;;;;4.43;4.27;;;21.70;99.90;;;;;;5115194;28;20416;-71
2022/06/11 06:40:49;;;;;;;7.33;4.80;;;21.80;99.90;;;;;;5115773;28;20390;-70
2022/06/11 06:43:15;;;;;;;4.53;4.33;;;21.70;99.90;;;;;;5115648;28;20199;-71
2022/06/11 06:45:41;;;;;;;5.20;4.90;;;21.80;99.90;;;;;;5115106;28;20175;-71
2022/06/11 06:48:07;;;;;;;4.80;4.50;;;21.80;99.90;;;;;;5115771;28;20737;-71
2022/06/11 06:50:35;;;;;;;6.10;5.90;;;21.80;99.90;;;;;;5115006;28;20211;-71
2022/06/11 06:53:01;;;;;;;7.07;6.57;;;21.80;99.90;;;;;;5115652;28;20810;-70
2022/06/11 06:55:27;;;;;;;6.17;5.93;;;21.90;99.90;;;;;;5114564;28;20881;-71
2022/06/11 06:57:52;;;;;;;3.70;3.50;;;21.90;99.90;;;;;;5115356;28;20400;-70
2022/06/11 07:00:19;;;;;;;3.87;3.57;;;21.90;99.90;;;;;;5115354;28;20171;-71
2022/06/11 07:02:46;;;;;;;6.50;5.10;;;21.90;99.90;;;;;;5114728;28;20207;-71
2022/06/11 07:05:13;;;;;;;4.90;4.70;;;21.90;99.90;;;;;;5113628;28;20467;-71
2022/06/11 07:07:40;;;;;;;5.33;4.90;;;22.00;99.90;;;;;;5114609;28;20402;-71
2022/06/11 07:10:08;;;;;;;5.20;4.80;;;22.00;99.90;;;;;;5114870;28;20398;-70
2022/06/11 07:12:34;;;;;;;5.60;5.40;;;22.00;99.90;;;;;;5114551;28;20818;-71
2022/06/11 07:15:00;;;;;;;5.27;4.87;;;22.00;99.90;;;;;;5113997;28;20430;-70
2022/06/11 07:17:32;;;;;;;5.47;5.07;;;22.00;99.90;;;;;;5113302;28;20616;-71
2022/06/11 07:20:06;;;;;;;5.00;4.60;;;22.00;99.90;;;;;;5114940;28;20540;-71
2022/06/11 07:22:43;;;;;;;5.60;5.00;;;22.00;99.90;;;;;;5114347;28;20915;-71
2022/06/11 07:25:10;;;;;;;4.43;3.97;;;22.00;99.90;;;;;;5096762;28;20409;-71
2022/06/11 07:27:41;;;;;;;4.17;3.87;;;22.00;99.90;;;;;;5113933;28;20926;-71
2022/06/11 07:30:13;;;;;;;4.87;4.57;;;22.00;99.90;;;;;;5114846;28;20728;-71
2022/06/11 07:32:41;;;;;;;4.37;4.07;;;21.90;99.90;;;;;;5114277;28;20547;-70
2022/06/11 07:35:08;;;;;;;4.10;3.90;;;21.90;99.90;;;;;;5115121;28;20414;-71
2022/06/11 07:37:38;;;;;;;4.40;4.10;;;22.00;99.90;;;;;;5113813;28;20453;-71
2022/06/11 07:40:05;;;;;;;4.50;4.20;;;22.00;99.90;;;;;;5114546;28;20398;-71
2022/06/11 07:42:31;;;;;;;4.23;4.00;;;22.00;99.90;;;;;;5113555;28;20959;-71
2022/06/11 07:44:57;;;;;;;4.30;4.10;;;22.10;99.90;;;;;;5114554;28;20413;-71
2022/06/11 07:50:13;;;;;;;6.40;4.37;;;22.20;99.90;;;;;;5114744;28;20414;-71
2022/06/11 07:52:40;;;;;;;4.47;4.17;;;22.20;99.90;;;;;;5113762;28;20398;-71
2022/06/11 07:55:07;;;;;;;4.70;4.40;;;22.30;99.90;;;;;;5114246;28;20501;-71
2022/06/11 07:57:32;;;;;;;4.20;4.00;;;22.20;99.90;;;;;;5113723;28;20406;-71
2022/06/11 07:59:58;;;;;;;4.13;3.93;;;22.30;99.90;;;;;;5114287;28;20401;-71
2022/06/11 08:02:25;;;;;;;4.47;4.07;;;22.30;99.90;;;;;;5114162;28;20175;-70
2022/06/11 08:04:51;;;;;;;4.30;4.00;;;22.30;99.90;;;;;;5113897;28;20223;-71
2022/06/11 08:07:18;;;;;;;4.43;4.03;;;22.40;99.90;;;;;;5114131;28;20401;-71
2022/06/11 08:09:44;;;;;;;4.30;4.00;;;22.50;99.90;;;;;;5113623;28;20448;-71
2022/06/11 08:12:10;;;;;;;3.93;3.73;;;22.70;99.90;;;;;;5114095;28;20433;-71
2022/06/11 08:14:36;;;;;;;4.10;3.80;;;22.70;99.90;;;;;;5113372;28;20197;-71
2022/06/11 08:17:02;;;;;;;4.77;4.40;;;22.90;99.90;;;;;;5113925;28;20413;-71
2022/06/11 08:19:28;;;;;;;4.40;4.20;;;23.00;99.90;;;;;;5113114;28;20298;-74
2022/06/11 08:21:56;;;;;;;4.47;4.17;;;23.00;99.90;;;;;;5112737;28;20501;-71
2022/06/11 08:24:22;;;;;;;4.17;3.97;;;23.00;99.90;;;;;;5113650;28;20779;-71
2022/06/11 08:26:48;;;;;;;4.70;4.30;;;23.00;99.90;;;;;;5112883;28;20405;-71
2022/06/11 08:29:14;;;;;;;4.60;4.30;;;23.00;99.90;;;;;;5113682;28;20903;-71
2022/06/11 08:31:40;;;;;;;4.50;3.87;;;23.00;99.90;;;;;;5113146;28;20529;-71
2022/06/11 08:34:05;;;;;;;4.20;3.90;;;23.20;99.90;;;;;;5112403;28;20409;-71
2022/06/11 08:36:31;;;;;;;4.93;4.63;;;23.10;99.90;;;;;;5113070;28;20163;-71
2022/06/11 08:38:57;;;;;;;5.33;5.03;;;23.10;99.90;;;;;;5113565;28;20174;-71
2022/06/11 08:41:31;;;;;;;5.53;4.93;;;23.00;99.90;;;;;;5113678;28;20630;-71
2022/06/11 08:44:04;;;;;;;4.77;4.47;;;23.10;99.90;;;;;;5113450;28;20280;-71
2022/06/11 08:46:36;;;;;;;5.47;4.60;;;23.20;99.90;;;;;;5093817;28;20413;-72
2022/06/11 08:49:05;;;;;;;4.70;4.40;;;23.30;99.90;;;;;;5113446;28;20504;-71
2022/06/11 08:52:04;;;;;;;4.80;4.50;;;23.50;99.90;;;;;;5112686;28;20414;-71
2022/06/11 08:54:35;;;;;;;5.30;4.93;;;23.50;99.90;;;;;;5112925;28;20406;-75
2022/06/11 08:57:38;;;;;;;5.80;5.40;;;23.50;99.90;;;;;;5113428;28;20400;-71
2022/06/11 09:00:11;;;;;;;5.37;5.13;;;23.60;99.90;;;;;;5113336;28;20395;-71
2022/06/11 09:03:05;;;;;;;6.03;5.57;;;23.80;99.60;;;;;;5112174;28;20970;-71
2022/06/11 09:05:45;;;;;;;5.47;5.27;;;24.00;99.40;;;;;;5112665;28;20889;-72
2022/06/11 09:08:35;;;;;;;5.43;5.10;;;24.10;98.50;;;;;;5113346;28;20413;-71
2022/06/11 09:11:42;;;;;;;5.90;5.57;;;24.30;97.80;;;;;;5111566;28;20440;-71
2022/06/11 09:14:31;;;;;;;7.40;6.90;;;24.40;97.70;;;;;;5091955;28;20449;-71
2022/06/11 09:17:10;;;;;;;6.93;6.53;;;24.40;96.90;;;;;;5090912;28;20445;-71
2022/06/11 09:20:07;;;;;;;7.43;7.03;;;24.30;97.30;;;;;;5112294;28;20453;-71
2022/06/11 09:22:46;;;;;;;8.03;7.57;;;24.20;97.70;;;;;;5112449;28;20456;-71
2022/06/11 09:25:30;;;;;;;7.40;7.00;;;24.00;98.10;;;;;;5113199;28;20409;-70
2022/06/11 09:28:22;;;;;;;9.17;8.43;;;23.90;98.70;;;;;;5113084;28;20401;-70
2022/06/11 09:31:21;;;;;;;8.53;7.87;;;23.80;99.60;;;;;;5112431;28;20421;-71
2022/06/11 09:34:24;;;;;;;8.47;7.93;;;23.70;99.90;;;;;;5102769;28;20425;-71
2022/06/11 09:37:07;;;;;;;7.67;7.17;;;23.80;99.90;;;;;;5077279;28;20424;-71
2022/06/11 09:39:40;;;;;;;8.30;7.80;;;24.00;99.90;;;;;;5114122;28;20409;-71
2022/06/11 09:42:18;;;;;;;7.97;7.27;;;24.20;99.90;;;;;;5117221;28;20472;-71
2022/06/11 09:44:48;;;;;;;7.10;6.70;;;24.40;99.90;;;;;;5116262;28;20425;-71
2022/06/11 09:47:23;;;;;;;8.10;7.60;;;24.70;99.90;;;;;;5116977;28;20393;-71
2022/06/11 09:50:01;;;;;;;7.47;6.97;;;24.90;98.60;;;;;;5115937;28;20421;-71
2022/06/11 09:52:35;;;;;;;7.37;6.80;;;25.10;98.10;;;;;;5116820;28;20450;-71
2022/06/11 09:55:21;;;;;;;6.83;6.33;;;25.30;98.50;;;;;;5116653;28;20401;-71
2022/06/11 09:58:16;;;;;;;6.70;6.30;;;25.60;96.40;;;;;;5116116;28;20393;-71
2022/06/11 10:00:56;;;;;;;6.30;5.90;;;25.70;95.30;;;;;;5115877;28;20401;-71
2022/06/11 10:03:49;;;;;;;6.80;6.40;;;25.70;95.20;;;;;;5116284;28;20934;-71
2022/06/11 10:06:26;;;;;;;6.53;6.03;;;25.60;95.00;;;;;;5116574;28;20865;-71
2022/06/11 10:09:01;;;;;;;5.60;5.20;;;25.60;95.30;;;;;;5115861;28;20390;-71
2022/06/11 10:11:35;;;;;;;6.10;5.73;;;25.50;94.50;;;;;;5116029;28;20418;-71
2022/06/11 10:14:30;;;;;;;5.40;5.10;;;25.50;94.90;;;;;;5116612;28;20708;-71
2022/06/11 10:17:21;;;;;;;5.33;5.03;;;25.50;94.60;;;;;;5115668;28;20404;-71
2022/06/11 10:19:58;;;;;;;5.60;5.30;;;25.50;95.70;;;;;;5095080;28;20556;-71
2022/06/11 10:22:49;;;;;;;5.60;5.30;;;25.60;94.40;;;;;;5114963;28;20881;-71
2022/06/11 10:25:40;;;;;;;5.03;4.77;;;25.80;94.60;;;;;;5116175;28;20504;-71
2022/06/11 10:28:14;;;;;;;5.57;5.23;;;25.70;94.10;;;;;;5116141;28;20413;-71
2022/06/11 10:31:00;;;;;;;5.63;5.13;;;25.60;94.00;;;;;;5115535;28;20401;-71
2022/06/11 10:33:28;;;;;;;4.70;4.50;;;25.50;95.20;;;;;;5115312;28;20748;-71
2022/06/11 10:36:13;;;;;;;5.53;5.20;;;25.60;94.60;;;;;;5115348;28;20416;-71
2022/06/11 10:38:59;;;;;;;5.97;5.57;;;25.70;95.70;;;;;;5079217;28;20413;-71
2022/06/11 10:41:35;;;;;;;5.37;4.93;;;25.90;94.20;;;;;;5115742;28;20508;-71
2022/06/11 10:44:44;;;;;;;6.70;6.30;;;26.00;93.50;;;;;;5115787;28;20456;-71
2022/06/11 10:47:18;;;;;;;6.47;6.07;;;26.10;92.60;;;;;;5116015;28;20405;-71
2022/06/11 10:50:01;;;;;;;6.47;5.93;;;26.30;92.60;;;;;;5115191;28;20885;-71
2022/06/11 10:52:38;;;;;;;5.93;5.63;;;26.30;91.80;;;;;;5115565;28;20716;-71
2022/06/11 10:55:12;;;;;;;6.70;6.30;;;26.20;92.40;;;;;;5079543;28;20427;-71
2022/06/11 10:57:39;;;;;;;6.10;5.70;;;26.00;93.10;;;;;;5115079;28;20389;-72
2022/06/11 11:00:46;;;;;;;6.00;5.60;;;26.00;93.50;;;;;;5115389;28;20454;-71
2022/06/11 11:03:18;;;;;;;5.73;5.43;;;26.00;93.00;;;;;;5113058;28;20468;-71
2022/06/11 11:05:50;;;;;;;6.53;6.13;;;26.10;93.10;;;;;;5114855;28;20402;-71
2022/06/11 11:08:16;;;;;;;5.70;5.40;;;26.20;92.20;;;;;;5115385;28;20484;-71
2022/06/11 11:10:49;;;;;;;5.03;4.63;;;26.30;92.60;;;;;;5113418;28;20753;-71
2022/06/11 11:13:36;;;;;;;5.00;4.70;;;26.30;90.90;;;;;;5115352;28;20405;-71
2022/06/11 11:16:08;;;;;;;5.57;5.27;;;26.30;91.30;;;;;;5115006;28;20444;-71
2022/06/11 11:18:43;;;;;;;6.60;6.30;;;26.20;91.20;;;;;;5114953;28;20449;-71
2022/06/11 11:21:31;;;;;;;5.70;5.30;;;26.20;92.50;;;;;;5114898;28;20405;-71
2022/06/11 11:24:35;;;;;;;5.20;4.90;;;26.20;90.90;;;;;;5114345;28;20772;-71
2022/06/11 11:27:18;;;;;;;6.17;5.87;;;26.20;91.30;;;;;;5107483;28;20456;-71
2022/06/11 11:29:51;;;;;;;5.90;5.60;;;26.40;92.10;;;;;;5114370;28;20394;-71
2022/06/11 11:32:35;;;;;;;5.30;4.90;;;26.50;91.70;;;;;;5114885;28;20440;-71
2022/06/11 11:35:22;;;;;;;5.60;5.30;;;26.70;91.80;;;;;;5114231;28;20412;-71
2022/06/11 11:38:02;;;;;;;6.17;5.87;;;26.80;90.40;;;;;;5113760;28;20911;-71
2022/06/11 11:40:29;;;;;;;4.90;4.70;;;26.90;90.40;;;;;;5078616;28;20425;-71
2022/06/11 11:42:58;;;;;;;5.00;4.80;;;27.00;90.50;;;;;;5113833;28;20453;-71
2022/06/11 11:45:27;;;;;;;5.37;5.07;;;27.10;90.10;;;;;;5114597;28;20405;-71
2022/06/11 11:48:05;;;;;;;4.57;4.30;;;27.30;90.60;;;;;;5113448;28;20405;-71
2022/06/11 11:50:38;;;;;;;4.77;4.57;;;27.30;90.00;;;;;;5114752;28;20408;-71
2022/06/11 11:53:15;;;;;;;4.90;4.60;;;27.30;90.10;;;;;;5113849;28;20401;-71
2022/06/11 11:55:52;;;;;;;4.60;4.30;;;27.30;90.30;;;;;;5113752;28;20405;-72
2022/06/11 11:58:27;;;;;;;5.10;4.80;;;27.30;89.30;;;;;;5114368;28;20405;-71
2022/06/11 12:00:58;;;;;;;7.20;5.10;;;27.30;88.50;;;;;;5113361;28;20712;-71
2022/06/11 12:03:34;;;;;;;4.60;4.30;;;27.20;88.60;;;;;;5113801;28;20767;-71
2022/06/11 12:06:02;;;;;;;4.90;4.60;;;27.20;88.90;;;;;;5113590;28;20472;-71
2022/06/11 12:08:45;;;;;;;4.70;4.40;;;27.30;87.50;;;;;;5114339;28;20829;-71
2022/06/11 12:11:23;;;;;;;5.40;5.10;;;27.40;88.60;;;;;;5114172;28;20413;-71
2022/06/11 12:13:51;;;;;;;4.97;4.77;;;27.50;87.60;;;;;;5113423;28;20408;-71
2022/06/11 12:16:28;;;;;;;5.90;5.33;;;27.40;85.00;;;;;;5113579;28;20452;-71
2022/06/11 12:18:59;;;;;;;5.80;5.40;;;27.30;84.90;;;;;;5113101;28;20539;-71
2022/06/11 12:21:32;;;;;;;5.43;5.03;;;27.10;86.40;;;;;;5113824;28;20409;-71
2022/06/11 12:24:13;;;;;;;5.40;5.00;;;27.00;89.30;;;;;;5113223;28;20445;-71
2022/06/11 12:26:43;;;;;;;5.80;5.40;;;27.00;89.60;;;;;;5113908;28;20440;-71
2022/06/11 12:29:28;;;;;;;5.30;4.80;;;27.00;91.50;;;;;;5113908;28;20390;-71
2022/06/11 12:31:59;;;;;;;5.63;5.23;;;27.10;90.70;;;;;;5113157;28;20400;-71
2022/06/11 12:34:27;;;;;;;5.80;5.47;;;27.20;90.90;;;;;;5113739;28;20397;-71
2022/06/11 12:37:09;;;;;;;5.83;5.53;;;27.30;90.20;;;;;;5112781;28;20411;-71
2022/06/11 12:40:13;;;;;;;6.30;5.80;;;27.30;90.00;;;;;;5113655;28;20417;-71
2022/06/11 12:43:15;;;;;;;5.20;4.90;;;27.40;90.60;;;;;;5113502;28;20437;-71
2022/06/11 12:45:57;;;;;;;5.70;5.30;;;27.40;88.90;;;;;;5113550;28;20724;-71
2022/06/11 12:48:47;;;;;;;5.43;5.13;;;27.40;89.60;;;;;;5113700;28;20421;-71
2022/06/11 12:51:34;;;;;;;5.43;5.10;;;27.50;88.60;;;;;;5113453;28;20493;-71
2022/06/11 12:54:07;;;;;;;5.27;4.90;;;27.40;86.70;;;;;;5112828;28;20394;-71
2022/06/11 12:56:49;;;;;;;5.10;4.80;;;27.40;89.90;;;;;;5113596;28;20732;-71
2022/06/11 12:59:42;;;;;;;5.13;4.83;;;27.50;88.30;;;;;;5113435;28;20390;-71
2022/06/11 13:02:16;;;;;;;5.20;4.80;;;27.40;89.60;;;;;;5112649;28;20381;-71
2022/06/11 13:05:07;;;;;;;5.60;5.27;;;27.40;85.40;;;;;;5113183;28;20597;-71
2022/06/11 13:07:35;;;;;;;5.20;4.90;;;27.30;86.40;;;;;;5113142;28;20409;-71
2022/06/11 13:10:16;;;;;;;5.13;4.83;;;27.40;89.00;;;;;;5112547;28;20508;-71
2022/06/11 13:12:56;;;;;;;5.70;5.40;;;27.40;89.10;;;;;;5113242;28;20428;-71
2022/06/11 13:15:22;;;;;;;5.70;5.40;;;27.50;88.90;;;;;;5116133;28;20401;-71
2022/06/11 13:17:57;;;;;;;5.83;5.43;;;27.50;88.40;;;;;;5116446;28;20965;-71
2022/06/11 13:20:35;;;;;;;5.67;5.23;;;27.60;88.70;;;;;;5117167;28;20310;-71
2022/06/11 13:23:53;;;;;;;5.50;5.10;;;27.50;85.80;;;;;;5116362;28;20923;-71
2022/06/11 13:26:28;;;;;;;5.30;4.90;;;27.30;88.00;;;;;;5093312;28;20424;-71
2022/06/11 13:29:26;;;;;;;5.60;5.27;;;27.30;88.60;;;;;;5115631;28;20439;-71